createdAt,value
2023-03-26T00:01:29.681Z,27.10
2023-03-26T00:03:57.841Z,27.65
2023-03-26T00:06:34.911Z,28.50
2023-03-26T00:09:01.799Z,29.83
2023-03-26T00:11:29.595Z,30.55
2023-03-26T00:13:57.880Z,27.85
2023-03-26T00:16:28.895Z,29.00
2023-03-26T00:18:57.725Z,32.50
2023-03-26T00:21:28.940Z,28.60
2023-03-26T00:23:59.984Z,28.25
2023-03-26T00:26:29.463Z,29.80
2023-03-26T00:28:56.486Z,35.22
2023-03-26T00:31:24.117Z,28.70
2023-03-26T00:33:54.339Z,26.17
2023-03-26T00:36:23.115Z,29.83
2023-03-26T00:38:49.972Z,29.05
2023-03-26T00:41:22.665Z,31.60
2023-03-26T00:43:52.136Z,30.15
2023-03-26T00:46:19.638Z,35.13
2023-03-26T00:48:47.055Z,31.90
2023-03-26T00:51:16.706Z,28.90
2023-03-26T00:53:49.068Z,27.00
2023-03-26T00:56:16.081Z,27.75
2023-03-26T00:58:43.111Z,27.23
2023-03-26T01:01:18.519Z,26.77
2023-03-26T01:03:57.117Z,26.98
2023-03-26T01:06:37.817Z,34.50
2023-03-26T01:09:18.822Z,26.65
2023-03-26T01:11:46.909Z,26.30
2023-03-26T01:14:19.202Z,26.15
2023-03-26T01:16:55.370Z,26.40
2023-03-26T01:19:46.489Z,28.20
2023-03-26T01:22:21.714Z,30.25
2023-03-26T01:27:24.533Z,27.80
2023-03-26T01:30:24.239Z,30.10
2023-03-26T01:33:16.245Z,30.70
2023-03-26T01:36:12.781Z,31.30
2023-03-26T01:39:00.648Z,26.75
2023-03-26T01:41:51.766Z,27.02
2023-03-26T01:44:35.210Z,28.52
2023-03-26T01:47:02.224Z,33.50
2023-03-26T01:49:30.326Z,32.85
2023-03-26T01:51:58.238Z,28.00
2023-03-26T01:54:28.809Z,25.90
2023-03-26T01:56:58.496Z,34.30
2023-03-26T02:00:02.194Z,29.63
2023-03-26T02:03:00.110Z,25.58
2023-03-26T02:06:05.345Z,27.40
2023-03-26T02:08:37.647Z,27.13
2023-03-26T02:11:11.834Z,25.40
2023-03-26T02:13:40.985Z,26.23
2023-03-26T02:16:14.291Z,26.63
2023-03-26T02:18:45.939Z,25.23
2023-03-26T02:21:21.589Z,28.02
2023-03-26T02:23:57.737Z,25.95
2023-03-26T02:26:25.633Z,26.73
2023-03-26T02:29:20.570Z,26.55
2023-03-26T02:31:49.233Z,26.95
2023-03-26T02:34:17.027Z,24.05
2023-03-26T02:36:51.544Z,29.33
2023-03-26T02:39:18.622Z,29.00
2023-03-26T02:44:21.020Z,26.20
2023-03-26T02:47:00.341Z,25.98
2023-03-26T02:49:46.547Z,24.85
2023-03-26T02:52:21.664Z,27.75
2023-03-26T02:54:50.230Z,29.05
2023-03-26T02:57:22.422Z,26.00
2023-03-26T02:59:58.190Z,29.90
2023-03-26T03:02:40.576Z,25.73
2023-03-26T03:05:28.852Z,30.50
2023-03-26T03:08:23.896Z,23.95
2023-03-26T03:11:14.809Z,27.40
2023-03-26T03:13:46.743Z,28.75
2023-03-26T03:16:18.880Z,26.92
2023-03-26T03:18:47.462Z,25.45
2023-03-26T03:21:14.501Z,27.45
2023-03-26T03:23:41.277Z,25.98
2023-03-26T03:26:21.734Z,27.45
2023-03-26T03:28:53.650Z,30.55
2023-03-26T03:31:21.727Z,25.17
2023-03-26T03:33:48.793Z,29.25
2023-03-26T03:36:22.037Z,24.70
2023-03-26T03:39:02.249Z,28.98
2023-03-26T03:41:30.005Z,29.50
2023-03-26T03:43:59.784Z,30.55
2023-03-26T03:46:29.563Z,25.27
2023-03-26T03:48:56.684Z,27.58
2023-03-26T03:51:28.847Z,28.10
2023-03-26T03:53:58.397Z,25.13
2023-03-26T03:56:45.741Z,26.17
2023-03-26T03:59:28.638Z,26.05
2023-03-26T04:01:55.529Z,25.27
2023-03-26T04:04:38.134Z,27.58
2023-03-26T04:07:08.533Z,25.10
2023-03-26T04:09:56.083Z,23.25
2023-03-26T04:12:24.176Z,24.02
2023-03-26T04:14:59.160Z,25.40
2023-03-26T04:17:27.026Z,24.55
2023-03-26T04:19:56.081Z,24.08
2023-03-26T04:22:34.516Z,25.70
2023-03-26T04:25:05.205Z,23.95
2023-03-26T04:27:52.349Z,28.25
2023-03-26T04:30:34.895Z,25.20
2023-03-26T04:33:15.545Z,24.63
2023-03-26T04:35:45.405Z,26.60
2023-03-26T04:38:16.689Z,25.70
2023-03-26T04:40:47.408Z,24.27
2023-03-26T04:43:18.831Z,26.00
2023-03-26T04:45:48.178Z,27.20
2023-03-26T04:48:18.569Z,26.85
2023-03-26T04:50:45.614Z,26.35
2023-03-26T04:53:18.870Z,27.30
2023-03-26T04:56:08.730Z,27.35
2023-03-26T04:58:56.925Z,27.42
2023-03-26T05:01:28.310Z,27.50
2023-03-26T05:03:55.907Z,26.75
2023-03-26T05:06:23.310Z,25.13
2023-03-26T05:08:53.506Z,23.08
2023-03-26T05:11:40.389Z,26.63
2023-03-26T05:14:08.253Z,28.13
2023-03-26T05:16:36.358Z,26.75
2023-03-26T05:19:08.600Z,24.88
2023-03-26T05:21:35.902Z,27.15
2023-03-26T05:24:03.035Z,26.23
2023-03-26T05:26:29.920Z,25.50
2023-03-26T05:28:57.648Z,23.38
2023-03-26T05:31:42.776Z,25.45
2023-03-26T05:34:10.209Z,25.98
2023-03-26T05:36:38.956Z,24.42
2023-03-26T05:39:27.520Z,26.80
2023-03-26T05:42:26.638Z,25.75
2023-03-26T05:45:25.912Z,26.75
2023-03-26T05:47:54.954Z,24.75
2023-03-26T05:50:24.083Z,24.10
2023-03-26T05:52:54.069Z,24.75
2023-03-26T05:55:40.573Z,25.45
2023-03-26T05:58:31.302Z,25.90
2023-03-26T06:01:17.186Z,22.67
2023-03-26T06:04:03.997Z,23.10
2023-03-26T06:06:36.478Z,23.30
2023-03-26T06:09:04.418Z,26.15
2023-03-26T06:11:32.126Z,24.40
2023-03-26T06:14:00.742Z,24.63
2023-03-26T06:16:28.560Z,24.20
2023-03-26T06:19:05.446Z,25.80
2023-03-26T06:21:48.001Z,24.27
2023-03-26T06:24:19.951Z,22.65
2023-03-26T06:27:07.052Z,23.77
2023-03-26T06:30:12.770Z,24.25
2023-03-26T06:32:48.757Z,24.17
2023-03-26T06:35:23.434Z,24.75
2023-03-26T06:37:50.328Z,23.98
2023-03-26T06:40:17.653Z,22.77
2023-03-26T06:43:10.588Z,24.48
2023-03-26T06:45:52.008Z,24.35
2023-03-26T06:48:37.796Z,25.02
2023-03-26T06:51:30.756Z,23.80
2023-03-26T06:54:09.772Z,25.20
2023-03-26T06:56:52.347Z,27.10
2023-03-26T06:59:21.892Z,25.42
2023-03-26T07:02:07.748Z,27.58
2023-03-26T07:04:53.577Z,28.13
2023-03-26T07:07:45.948Z,28.40
2023-03-26T07:10:19.437Z,26.83
2023-03-26T07:13:03.903Z,27.73
2023-03-26T07:15:49.589Z,27.00
2023-03-26T07:18:36.577Z,25.83
2023-03-26T07:21:05.990Z,26.85
2023-03-26T07:23:33.726Z,26.35
2023-03-26T07:26:46.516Z,26.50
2023-03-26T07:29:52.681Z,26.92
2023-03-26T07:33:00.771Z,28.35
2023-03-26T07:36:19.324Z,29.98
2023-03-26T07:39:34.639Z,31.95
2023-03-26T07:42:45.035Z,29.42
2023-03-26T07:45:51.528Z,34.75
2023-03-26T07:48:57.679Z,28.95
2023-03-26T07:51:50.797Z,32.53
2023-03-26T07:54:43.988Z,35.13
2023-03-26T07:58:26.954Z,32.38
2023-03-26T08:01:54.545Z,32.00
2023-03-26T08:05:05.410Z,31.73
2023-03-26T08:08:05.770Z,28.92
2023-03-26T08:11:05.257Z,31.40
2023-03-26T08:13:59.597Z,35.47
2023-03-26T08:17:03.420Z,32.60
2023-03-26T08:19:42.351Z,34.28
2023-03-26T08:22:15.497Z,34.03
2023-03-26T08:25:03.254Z,33.25
2023-03-26T08:28:08.438Z,42.10
2023-03-26T08:30:35.860Z,34.55
2023-03-26T08:33:20.610Z,34.67
2023-03-26T08:38:19.132Z,33.35
2023-03-26T08:40:55.041Z,29.88
2023-03-26T08:44:04.681Z,30.67
2023-03-26T08:46:55.780Z,36.13
2023-03-26T08:49:59.349Z,29.55
2023-03-26T08:52:47.954Z,29.97
2023-03-26T08:56:01.354Z,36.38
2023-03-26T08:58:34.271Z,33.22
2023-03-26T09:01:09.905Z,32.40
2023-03-26T09:04:22.872Z,24.13
2023-03-26T09:07:30.211Z,26.77
2023-03-26T09:10:18.271Z,24.67
2023-03-26T09:13:35.382Z,24.92
2023-03-26T09:16:21.199Z,25.58
2023-03-26T09:19:31.210Z,25.73
2023-03-26T09:22:03.893Z,24.55
2023-03-26T09:25:04.814Z,26.13
2023-03-26T09:27:51.339Z,24.38
2023-03-26T09:30:42.439Z,27.95
2023-03-26T09:33:52.247Z,29.48
2023-03-26T09:36:39.861Z,27.90
2023-03-26T09:39:46.892Z,28.20
2023-03-26T09:42:37.949Z,25.77
2023-03-26T09:45:29.522Z,24.25
2023-03-26T09:48:26.758Z,24.70
2023-03-26T09:51:02.610Z,27.30
2023-03-26T09:54:01.914Z,26.20
2023-03-26T09:56:53.110Z,27.85
2023-03-26T09:59:47.602Z,28.67
2023-03-26T10:02:48.968Z,28.67
2023-03-26T10:05:42.442Z,29.35
2023-03-26T10:08:53.688Z,25.50
2023-03-26T10:11:59.214Z,25.70
2023-03-26T10:14:44.224Z,21.48
2023-03-26T10:20:23.741Z,23.00
2023-03-26T10:22:59.626Z,23.52
2023-03-26T10:26:07.010Z,19.50
2023-03-26T10:28:39.579Z,20.88
2023-03-26T10:32:03.273Z,23.45
2023-03-26T10:37:51.834Z,22.48
2023-03-26T10:40:54.486Z,22.13
2023-03-26T10:43:39.432Z,22.35
2023-03-26T10:46:46.904Z,23.42
2023-03-26T10:49:31.796Z,22.65
2023-03-26T10:52:16.283Z,22.10
2023-03-26T10:54:46.852Z,23.23
2023-03-26T10:57:34.281Z,24.10
2023-03-26T11:00:25.529Z,23.48
2023-03-26T11:03:36.971Z,22.60
2023-03-26T11:06:34.325Z,22.48
2023-03-26T11:09:10.199Z,22.60
2023-03-26T11:11:45.007Z,20.23
2023-03-26T11:14:35.166Z,18.92
2023-03-26T11:17:40.842Z,21.00
2023-03-26T11:20:42.076Z,22.08
2023-03-26T11:23:26.842Z,20.35
2023-03-26T11:26:22.856Z,18.80
2023-03-26T11:29:05.164Z,19.95
2023-03-26T11:32:13.487Z,21.30
2023-03-26T11:34:48.116Z,23.83
2023-03-26T11:37:59.108Z,22.45
2023-03-26T11:40:38.832Z,21.45
2023-03-26T11:43:12.466Z,20.95
2023-03-26T11:45:43.073Z,23.88
2023-03-26T11:48:36.749Z,22.20
2023-03-26T11:51:36.748Z,23.63
2023-03-26T11:54:06.260Z,24.23
2023-03-26T11:57:05.246Z,21.73
2023-03-26T11:59:57.314Z,22.50
2023-03-26T12:02:35.799Z,25.30
2023-03-26T12:05:15.707Z,21.80
2023-03-26T12:07:54.133Z,21.27
2023-03-26T12:10:34.027Z,24.73
2023-03-26T12:13:32.572Z,21.45
2023-03-26T12:16:15.329Z,23.17
2023-03-26T12:18:44.939Z,24.67
2023-03-26T12:21:19.754Z,26.20
2023-03-26T12:24:05.171Z,23.27
2023-03-26T12:26:48.854Z,23.83
2023-03-26T12:29:18.997Z,24.23
2023-03-26T12:32:13.736Z,24.38
2023-03-26T12:37:32.409Z,27.38
2023-03-26T12:40:34.322Z,22.88
2023-03-26T12:44:46.499Z,24.20
2023-03-26T12:47:56.195Z,26.73
2023-03-26T12:49:22.136Z,27.83
2023-03-26T12:51:56.421Z,26.13
2023-03-26T12:55:21.536Z,24.17
2023-03-26T12:58:20.126Z,25.05
2023-03-26T13:01:27.457Z,24.25
2023-03-26T13:04:35.237Z,21.17
2023-03-26T13:07:36.542Z,22.70
2023-03-26T13:10:43.059Z,24.02
2023-03-26T13:13:28.069Z,26.40
2023-03-26T13:18:53.184Z,20.90
2023-03-26T13:22:08.010Z,20.73
2023-03-26T13:24:41.054Z,21.75
2023-03-26T13:27:20.989Z,20.80
2023-03-26T13:30:12.672Z,25.35
2023-03-26T13:32:58.794Z,20.73
2023-03-26T13:35:41.509Z,21.67
2023-03-26T13:38:30.953Z,22.67
2023-03-26T13:41:05.674Z,21.40
2023-03-26T13:43:44.389Z,24.17
2023-03-26T13:46:37.640Z,24.27
2023-03-26T13:49:21.134Z,19.50
2023-03-26T13:51:57.954Z,23.15
2023-03-26T13:54:32.390Z,21.77
2023-03-26T13:57:25.893Z,21.52
2023-03-26T14:00:00.864Z,21.13
2023-03-26T14:02:44.949Z,20.23
2023-03-26T14:05:26.452Z,23.98
2023-03-26T14:08:01.146Z,23.55
2023-03-26T14:10:35.400Z,24.88
2023-03-26T14:13:24.904Z,24.10
2023-03-26T14:16:03.311Z,22.90
2023-03-26T14:18:52.765Z,21.50
2023-03-26T14:21:40.736Z,23.92
2023-03-26T14:25:00.192Z,22.55
2023-03-26T14:27:37.166Z,22.42
2023-03-26T14:30:28.737Z,24.42
2023-03-26T14:33:47.015Z,20.40
2023-03-26T14:36:53.700Z,24.75
2023-03-26T14:39:48.119Z,24.58
2023-03-26T14:46:25.278Z,23.75
2023-03-26T14:49:06.163Z,20.85
2023-03-26T14:51:53.410Z,22.23
2023-03-26T14:54:24.773Z,22.30
2023-03-26T14:57:28.788Z,23.55
2023-03-26T15:03:10.204Z,22.38
2023-03-26T15:06:07.831Z,23.00
2023-03-26T15:09:09.108Z,21.17
2023-03-26T15:11:51.042Z,26.45
2023-03-26T15:14:34.382Z,23.00
2023-03-26T15:17:45.506Z,22.10
2023-03-26T15:20:31.991Z,20.73
2023-03-26T15:23:20.670Z,21.52
2023-03-26T15:26:24.684Z,26.30
2023-03-26T15:32:15.400Z,23.58
2023-03-26T15:35:07.231Z,26.15
2023-03-26T15:38:05.338Z,28.40
2023-03-26T15:40:44.744Z,28.30
2023-03-26T15:43:17.745Z,24.13
2023-03-26T15:46:12.681Z,24.10
2023-03-26T15:48:55.023Z,25.85
2023-03-26T15:51:47.011Z,27.85
2023-03-26T15:55:01.288Z,28.70
2023-03-26T15:57:34.674Z,27.00
2023-03-26T16:00:24.570Z,27.27
2023-03-26T16:03:10.087Z,27.65
2023-03-26T16:06:15.849Z,25.98
2023-03-26T16:09:12.758Z,30.25
2023-03-26T16:11:54.037Z,27.80
2023-03-26T16:14:25.221Z,25.85
2023-03-26T16:16:58.625Z,27.92
2023-03-26T16:19:59.688Z,26.63
2023-03-26T16:22:48.310Z,27.95
2023-03-26T16:25:28.947Z,22.95
2023-03-26T16:28:27.041Z,27.23
2023-03-26T16:31:38.322Z,27.02
2023-03-26T16:34:08.361Z,25.73
2023-03-26T16:36:36.889Z,28.05
2023-03-26T16:39:07.577Z,27.48
2023-03-26T16:41:50.141Z,28.98
2023-03-26T16:44:44.926Z,26.45
2023-03-26T16:47:24.491Z,28.35
2023-03-26T16:50:42.783Z,26.95
2023-03-26T16:53:29.900Z,27.40
2023-03-26T16:56:06.702Z,27.80
2023-03-26T16:59:16.843Z,27.92
2023-03-26T17:04:25.869Z,26.60
2023-03-26T17:07:35.515Z,26.52
2023-03-26T17:10:31.839Z,26.30
2023-03-26T17:13:08.423Z,26.63
2023-03-26T17:16:27.272Z,26.17
2023-03-26T17:19:24.180Z,26.67
2023-03-26T17:22:17.163Z,29.30
2023-03-26T17:24:56.469Z,30.73
2023-03-26T17:27:56.717Z,25.15
2023-03-26T17:30:45.650Z,29.27
2023-03-26T17:33:21.445Z,29.13
2023-03-26T17:35:51.030Z,29.80
2023-03-26T17:38:17.867Z,31.02
2023-03-26T17:41:01.496Z,30.50
2023-03-26T17:43:45.646Z,29.50
2023-03-26T17:46:43.427Z,24.73
2023-03-26T17:49:16.299Z,27.95
2023-03-26T17:51:59.533Z,28.45
2023-03-26T17:54:39.393Z,28.75
2023-03-26T17:57:14.617Z,29.42
2023-03-26T18:02:17.166Z,31.65
2023-03-26T18:07:31.761Z,30.92
2023-03-26T18:10:17.433Z,28.73
2023-03-26T18:13:11.597Z,29.90
2023-03-26T18:15:47.181Z,32.78
2023-03-26T18:18:27.012Z,31.13
2023-03-26T18:20:55.240Z,29.58
2023-03-26T18:23:47.573Z,31.55
2023-03-26T18:26:34.429Z,31.13
2023-03-26T18:29:38.030Z,30.13
2023-03-26T18:32:11.524Z,30.45
2023-03-26T18:34:50.094Z,29.65
2023-03-26T18:37:23.975Z,32.45
2023-03-26T18:40:00.111Z,30.10
2023-03-26T18:42:28.754Z,30.60
2023-03-26T18:45:00.023Z,30.15
2023-03-26T18:47:29.540Z,29.27
2023-03-26T18:49:57.392Z,27.95
2023-03-26T18:52:24.378Z,25.95
2023-03-26T18:54:52.775Z,28.65
2023-03-26T18:57:28.455Z,27.85
2023-03-26T19:00:10.181Z,30.48
2023-03-26T19:02:38.473Z,30.35
2023-03-26T19:05:06.302Z,25.38
2023-03-26T19:07:35.396Z,26.02
2023-03-26T19:10:02.505Z,29.05
2023-03-26T19:12:36.612Z,31.10
2023-03-26T19:15:20.039Z,29.63
2023-03-26T19:17:51.411Z,31.88
2023-03-26T19:20:28.423Z,29.95
2023-03-26T19:22:57.103Z,30.00
2023-03-26T19:25:31.820Z,29.42
2023-03-26T19:27:59.194Z,30.58
2023-03-26T19:30:35.378Z,28.85
2023-03-26T19:33:18.372Z,31.48
2023-03-26T19:35:52.790Z,26.73
2023-03-26T19:38:28.173Z,27.83
2023-03-26T19:40:57.693Z,26.88
2023-03-26T19:43:25.785Z,24.05
2023-03-26T19:46:00.508Z,27.60
2023-03-26T19:48:46.292Z,25.83
2023-03-26T19:51:31.673Z,29.23
2023-03-26T19:54:03.071Z,24.08
2023-03-26T19:56:30.476Z,24.40
2023-03-26T19:58:59.166Z,26.02
2023-03-26T20:01:29.215Z,22.33
2023-03-26T20:03:59.909Z,23.20
2023-03-26T20:06:42.581Z,29.55
2023-03-26T20:09:14.094Z,26.17
2023-03-26T20:11:41.291Z,23.58
2023-03-26T20:14:18.166Z,25.50
2023-03-26T20:16:46.251Z,27.55
2023-03-26T20:19:14.852Z,26.60
2023-03-26T20:21:42.404Z,26.55
2023-03-26T20:24:13.097Z,23.92
2023-03-26T20:26:40.063Z,25.63
2023-03-26T20:29:07.025Z,24.88
2023-03-26T20:31:34.260Z,25.23
2023-03-26T20:34:01.142Z,26.52
2023-03-26T20:36:33.384Z,25.25
2023-03-26T20:39:01.629Z,25.65
2023-03-26T20:41:29.057Z,23.23
2023-03-26T20:43:55.976Z,22.10
2023-03-26T20:46:30.552Z,22.20
2023-03-26T20:48:59.855Z,24.10
2023-03-26T20:51:28.821Z,26.45
2023-03-26T20:53:56.403Z,24.73
2023-03-26T20:56:23.557Z,23.65
2023-03-26T20:59:03.466Z,23.02
2023-03-26T21:01:37.834Z,23.75
2023-03-26T21:04:04.677Z,23.95
2023-03-26T21:06:31.638Z,25.58
2023-03-26T21:08:58.916Z,26.02
2023-03-26T21:11:39.800Z,23.27
2023-03-26T21:14:23.531Z,26.70
2023-03-26T21:16:51.047Z,24.17
2023-03-26T21:19:18.813Z,23.33
2023-03-26T21:22:03.012Z,27.27
2023-03-26T21:25:21.957Z,26.08
2023-03-26T21:28:29.160Z,26.48
2023-03-26T21:31:07.865Z,27.63
2023-03-26T21:33:34.693Z,26.90
2023-03-26T21:36:01.870Z,25.30
2023-03-26T21:38:32.289Z,26.13
2023-03-26T21:41:02.133Z,29.83
2023-03-26T21:43:29.250Z,24.15
2023-03-26T21:45:57.428Z,28.30
2023-03-26T21:48:24.722Z,27.27
2023-03-26T21:50:51.888Z,28.52
2023-03-26T21:53:19.050Z,29.52
2023-03-26T21:56:10.411Z,26.23
2023-03-26T21:58:41.861Z,28.23
2023-03-26T22:01:40.615Z,27.88
2023-03-26T22:04:32.439Z,26.80
2023-03-26T22:07:19.346Z,26.52
2023-03-26T22:09:46.564Z,23.10
2023-03-26T22:12:13.358Z,26.45
2023-03-26T22:14:40.560Z,26.02
2023-03-26T22:17:08.652Z,26.88
2023-03-26T22:19:35.922Z,28.30
2023-03-26T22:22:02.887Z,23.92
2023-03-26T22:24:29.791Z,25.65
2023-03-26T22:26:56.574Z,27.85
2023-03-26T22:29:23.421Z,27.63
2023-03-26T22:31:50.269Z,27.58
2023-03-26T22:34:17.832Z,24.90
2023-03-26T22:36:44.659Z,26.80
2023-03-26T22:39:12.206Z,28.98
2023-03-26T22:41:39.090Z,29.23
2023-03-26T22:44:19.160Z,25.60
2023-03-26T22:46:49.392Z,25.58
2023-03-26T22:49:17.318Z,25.17
2023-03-26T22:51:44.427Z,22.73
2023-03-26T22:54:11.457Z,26.05
2023-03-26T22:56:38.340Z,27.42
2023-03-26T22:59:05.159Z,24.77
2023-03-26T23:01:32.061Z,27.95
2023-03-26T23:03:58.918Z,25.70
2023-03-26T23:06:25.764Z,26.58
2023-03-26T23:08:54.318Z,27.25
2023-03-26T23:11:24.299Z,25.40
2023-03-26T23:13:51.281Z,28.05
2023-03-26T23:16:18.238Z,24.67
2023-03-26T23:18:45.388Z,28.15
2023-03-26T23:21:19.337Z,25.83
2023-03-26T23:23:47.515Z,26.25
2023-03-26T23:26:14.946Z,26.27
2023-03-26T23:28:41.959Z,24.95
2023-03-26T23:31:12.210Z,26.92
2023-03-26T23:33:45.767Z,26.75
2023-03-26T23:36:17.538Z,27.70
2023-03-26T23:38:47.813Z,25.38
2023-03-26T23:41:21.622Z,23.65
2023-03-26T23:43:56.463Z,24.70
2023-03-26T23:46:30.863Z,22.08
2023-03-26T23:49:00.010Z,24.25
2023-03-26T23:51:27.029Z,26.98
2023-03-26T23:53:53.943Z,26.13
2023-03-26T23:56:21.227Z,24.77
2023-03-26T23:58:48.958Z,28.25
